sensor_id;sensor_type;location;lat;lon;timestamp;pressure;altitude;pressure_sealevel;temperature;humidity
37202;BME280;37799;52.390;6.136;2023-01-04T00:01:07;101808.84;;;8.31;100.00
37202;BME280;37799;52.390;6.136;2023-01-04T00:03:33;101803.72;;;8.14;100.00
37202;BME280;37799;52.390;6.136;2023-01-04T00:06:00;101799.41;;;8.19;100.00
37202;BME280;37799;52.390;6.136;2023-01-04T00:08:26;101800.25;;;8.17;100.00
37202;BME280;37799;52.390;6.136;2023-01-04T00:10:51;101789.94;;;8.14;100.00
37202;BME280;37799;52.390;6.136;2023-01-04T00:13:17;101787.38;;;8.09;100.00
37202;BME280;37799;52.390;6.136;2023-01-04T00:15:42;101785.66;;;8.05;100.00
37202;BME280;37799;52.390;6.136;2023-01-04T00:18:07;101775.34;;;8.20;100.00
37202;BME280;37799;52.390;6.136;2023-01-04T00:20:33;101761.56;;;8.12;100.00
37202;BME280;37799;52.390;6.136;2023-01-04T00:22:58;101770.16;;;8.14;100.00
37202;BME280;37799;52.390;6.136;2023-01-04T00:25:24;101744.41;;;7.94;100.00
37202;BME280;37799;52.390;6.136;2023-01-04T00:27:50;101746.13;;;8.08;100.00
37202;BME280;37799;52.390;6.136;2023-01-04T00:30:16;101747.81;;;8.01;100.00
37202;BME280;37799;52.390;6.136;2023-01-04T00:32:41;101742.69;;;7.98;100.00
37202;BME280;37799;52.390;6.136;2023-01-04T00:35:07;101737.50;;;8.01;100.00
37202;BME280;37799;52.390;6.136;2023-01-04T00:37:32;101735.81;;;7.98;100.00
37202;BME280;37799;52.390;6.136;2023-01-04T00:39:58;101734.06;;;8.01;100.00
37202;BME280;37799;52.390;6.136;2023-01-04T00:42:23;101716.88;;;8.10;100.00
37202;BME280;37799;52.390;6.136;2023-01-04T00:44:48;101720.28;;;8.06;100.00
37202;BME280;37799;52.390;6.136;2023-01-04T00:47:13;101710.00;;;8.00;100.00
37202;BME280;37799;52.390;6.136;2023-01-04T00:49:39;101708.28;;;8.11;100.00
37202;BME280;37799;52.390;6.136;2023-01-04T00:52:04;101701.41;;;7.90;100.00
37202;BME280;37799;52.390;6.136;2023-01-04T00:54:30;101691.09;;;7.89;100.00
37202;BME280;37799;52.390;6.136;2023-01-04T00:56:57;101691.13;;;7.86;100.00
37202;BME280;37799;52.390;6.136;2023-01-04T00:59:22;101684.19;;;8.03;100.00
37202;BME280;37799;52.390;6.136;2023-01-04T01:01:47;101681.63;;;7.91;100.00
37202;BME280;37799;52.390;6.136;2023-01-04T01:04:15;101672.19;;;7.93;100.00
37202;BME280;37799;52.390;6.136;2023-01-04T01:06:41;101663.59;;;7.91;100.00
37202;BME280;37799;52.390;6.136;2023-01-04T01:09:07;101652.41;;;7.93;100.00
37202;BME280;37799;52.390;6.136;2023-01-04T01:11:32;101649.84;;;7.90;100.00
37202;BME280;37799;52.390;6.136;2023-01-04T01:14:01;101624.03;;;7.93;100.00
37202;BME280;37799;52.390;6.136;2023-01-04T01:16:27;101628.34;;;7.88;100.00
37202;BME280;37799;52.390;6.136;2023-01-04T01:18:53;101624.03;;;8.01;100.00
37202;BME280;37799;52.390;6.136;2023-01-04T01:21:21;101617.16;;;7.98;100.00
37202;BME280;37799;52.390;6.136;2023-01-04T01:23:48;101629.19;;;7.98;100.00
37202;BME280;37799;52.390;6.136;2023-01-04T01:26:15;101618.84;;;8.07;100.00
37202;BME280;37799;52.390;6.136;2023-01-04T01:28:41;101620.56;;;8.05;100.00
37202;BME280;37799;52.390;6.136;2023-01-04T01:31:10;101617.97;;;8.07;100.00
37202;BME280;37799;52.390;6.136;2023-01-04T01:33:37;101596.53;;;8.00;100.00
37202;BME280;37799;52.390;6.136;2023-01-04T01:36:03;101587.94;;;7.98;100.00
37202;BME280;37799;52.390;6.136;2023-01-04T01:38:29;101585.34;;;7.98;100.00
37202;BME280;37799;52.390;6.136;2023-01-04T01:40:54;101582.72;;;8.07;100.00
37202;BME280;37799;52.390;6.136;2023-01-04T01:43:22;101571.56;;;8.08;100.00
37202;BME280;37799;52.390;6.136;2023-01-04T01:45:51;101573.28;;;8.11;100.00
37202;BME280;37799;52.390;6.136;2023-01-04T01:48:27;101563.81;;;8.05;100.00
37202;BME280;37799;52.390;6.136;2023-01-04T01:51:01;101555.25;;;7.98;100.00
37202;BME280;37799;52.390;6.136;2023-01-04T01:53:29;101556.94;;;8.07;100.00
37202;BME280;37799;52.390;6.136;2023-01-04T01:55:57;101541.44;;;8.13;100.00
37202;BME280;37799;52.390;6.136;2023-01-04T01:58:28;101544.88;;;8.15;100.00
37202;BME280;37799;52.390;6.136;2023-01-04T02:00:55;101551.75;;;8.13;100.00
37202;BME280;37799;52.390;6.136;2023-01-04T02:03:23;101534.50;;;8.20;100.00
37202;BME280;37799;52.390;6.136;2023-01-04T02:05:52;101537.97;;;8.22;100.00
37202;BME280;37799;52.390;6.136;2023-01-04T02:08:21;101540.56;;;8.22;100.00
37202;BME280;37799;52.390;6.136;2023-01-04T02:10:47;101536.25;;;8.19;100.00
37202;BME280;37799;52.390;6.136;2023-01-04T02:13:15;101519.91;;;8.17;100.00
37202;BME280;37799;52.390;6.136;2023-01-04T02:18:29;101525.00;;;8.40;100.00
37202;BME280;37799;52.390;6.136;2023-01-04T02:21:10;101515.50;;;8.42;100.00
37202;BME280;37799;52.390;6.136;2023-01-04T02:26:16;101501.72;;;8.48;100.00
37202;BME280;37799;52.390;6.136;2023-01-04T02:29:18;101492.16;;;8.57;100.00
37202;BME280;37799;52.390;6.136;2023-01-04T02:32:00;101495.53;;;8.67;100.00
37202;BME280;37799;52.390;6.136;2023-01-04T02:34:57;101490.47;;;8.55;100.00
37202;BME280;37799;52.390;6.136;2023-01-04T02:37:37;101476.69;;;8.61;100.00
37202;BME280;37799;52.390;6.136;2023-01-04T02:40:27;101473.34;;;8.43;100.00
37202;BME280;37799;52.390;6.136;2023-01-04T02:43:03;101483.56;;;8.62;100.00
37202;BME280;37799;52.390;6.136;2023-01-04T02:45:54;101478.28;;;8.75;100.00
37202;BME280;37799;52.390;6.136;2023-01-04T02:48:20;101496.28;;;8.81;100.00
37202;BME280;37799;52.390;6.136;2023-01-04T02:51:21;101491.06;;;8.91;100.00
37202;BME280;37799;52.390;6.136;2023-01-04T02:53:48;101483.44;;;8.75;100.00
37202;BME280;37799;52.390;6.136;2023-01-04T02:56:22;101480.75;;;8.84;100.00
37202;BME280;37799;52.390;6.136;2023-01-04T03:04:33;101453.19;;;8.90;100.00
37202;BME280;37799;52.390;6.136;2023-01-04T03:07:48;101455.75;;;8.91;100.00
37202;BME280;37799;52.390;6.136;2023-01-04T03:10:25;101450.47;;;9.03;100.00
37202;BME280;37799;52.390;6.136;2023-01-04T03:13:00;101440.03;;;9.15;100.00
37202;BME280;37799;52.390;6.136;2023-01-04T03:15:30;101437.47;;;9.11;100.00
37202;BME280;37799;52.390;6.136;2023-01-04T03:18:01;101435.78;;;9.11;100.00
37202;BME280;37799;52.390;6.136;2023-01-04T03:20:31;101431.44;;;9.12;100.00
37202;BME280;37799;52.390;6.136;2023-01-04T03:23:07;101425.41;;;9.13;100.00
37202;BME280;37799;52.390;6.136;2023-01-04T03:25:55;101427.22;;;9.05;100.00
37202;BME280;37799;52.390;6.136;2023-01-04T03:28:43;101432.16;;;9.23;100.00
37202;BME280;37799;52.390;6.136;2023-01-04T03:31:39;101429.69;;;9.15;100.00
37202;BME280;37799;52.390;6.136;2023-01-04T03:34:25;101425.28;;;9.25;100.00
37202;BME280;37799;52.390;6.136;2023-01-04T03:37:26;101418.41;;;9.21;100.00
37202;BME280;37799;52.390;6.136;2023-01-04T03:46:02;101427.88;;;9.25;100.00
37202;BME280;37799;52.390;6.136;2023-01-04T03:49:06;101423.44;;;9.33;100.00
37202;BME280;37799;52.390;6.136;2023-01-04T03:51:36;101431.06;;;9.45;100.00
37202;BME280;37799;52.390;6.136;2023-01-04T03:56:38;101426.81;;;9.41;100.00
37202;BME280;37799;52.390;6.136;2023-01-04T03:59:09;101424.06;;;9.55;100.00
37202;BME280;37799;52.390;6.136;2023-01-04T04:01:35;101421.69;;;9.38;100.00
37202;BME280;37799;52.390;6.136;2023-01-04T04:04:01;101421.50;;;9.54;100.00
37202;BME280;37799;52.390;6.136;2023-01-04T04:06:45;101421.56;;;9.48;100.00
37202;BME280;37799;52.390;6.136;2023-01-04T04:09:29;101418.09;;;9.49;100.00
37202;BME280;37799;52.390;6.136;2023-01-04T04:11:55;101411.13;;;9.57;100.00
37202;BME280;37799;52.390;6.136;2023-01-04T04:14:20;101416.31;;;9.55;100.00
37202;BME280;37799;52.390;6.136;2023-01-04T04:16:46;101399.88;;;9.59;100.00
37202;BME280;37799;52.390;6.136;2023-01-04T04:19:11;101403.25;;;9.63;100.00
37202;BME280;37799;52.390;6.136;2023-01-04T04:21:36;101393.88;;;9.56;100.00
37202;BME280;37799;52.390;6.136;2023-01-04T04:24:03;101391.03;;;9.77;100.00
37202;BME280;37799;52.390;6.136;2023-01-04T04:26:28;101384.03;;;9.84;100.00
37202;BME280;37799;52.390;6.136;2023-01-04T04:28:53;101381.50;;;9.81;100.00
37202;BME280;37799;52.390;6.136;2023-01-04T04:31:18;101386.69;;;9.79;100.00
37202;BME280;37799;52.390;6.136;2023-01-04T04:33:44;101376.50;;;9.67;100.00
37202;BME280;37799;52.390;6.136;2023-01-04T04:36:09;101383.25;;;9.75;100.00
37202;BME280;37799;52.390;6.136;2023-01-04T04:38:35;101383.03;;;9.92;100.00
37202;BME280;37799;52.390;6.136;2023-01-04T04:41:12;101379.53;;;9.96;100.00
37202;BME280;37799;52.390;6.136;2023-01-04T04:43:56;101374.41;;;9.93;100.00
37202;BME280;37799;52.390;6.136;2023-01-04T04:46:22;101379.41;;;10.05;100.00
37202;BME280;37799;52.390;6.136;2023-01-04T04:48:47;101369.91;;;10.06;100.00
37202;BME280;37799;52.390;6.136;2023-01-04T04:51:13;101363.00;;;10.07;100.00
37202;BME280;37799;52.390;6.136;2023-01-04T04:53:38;101360.63;;;9.93;100.00
37202;BME280;37799;52.390;6.136;2023-01-04T04:56:04;101355.41;;;9.94;100.00
37202;BME280;37799;52.390;6.136;2023-01-04T04:58:29;101343.13;;;10.09;100.00
37202;BME280;37799;52.390;6.136;2023-01-04T05:00:54;101348.09;;;10.21;100.00
37202;BME280;37799;52.390;6.136;2023-01-04T05:03:20;101348.38;;;10.02;100.00
37202;BME280;37799;52.390;6.136;2023-01-04T05:05:45;101339.69;;;10.08;100.00
37202;BME280;37799;52.390;6.136;2023-01-04T05:08:10;101343.66;;;10.30;100.00
37202;BME280;37799;52.390;6.136;2023-01-04T05:10:36;101339.28;;;10.34;100.00
37202;BME280;37799;52.390;6.136;2023-01-04T05:13:03;101344.53;;;10.31;100.00
37202;BME280;37799;52.390;6.136;2023-01-04T05:15:36;101337.56;;;10.34;100.00
37202;BME280;37799;52.390;6.136;2023-01-04T05:18:03;101343.59;;;10.35;100.00
37202;BME280;37799;52.390;6.136;2023-01-04T05:20:28;101333.81;;;10.51;100.00
37202;BME280;37799;52.390;6.136;2023-01-04T05:22:54;101342.59;;;10.44;100.00
37202;BME280;37799;52.390;6.136;2023-01-04T05:25:19;101329.47;;;10.51;100.00
37202;BME280;37799;52.390;6.136;2023-01-04T05:27:44;101334.78;;;10.45;100.00
37202;BME280;37799;52.390;6.136;2023-01-04T05:30:12;101319.06;;;10.56;100.00
37202;BME280;37799;52.390;6.136;2023-01-04T05:32:56;101329.34;;;10.59;100.00
37202;BME280;37799;52.390;6.136;2023-01-04T05:35:22;101326.69;;;10.63;100.00
37202;BME280;37799;52.390;6.136;2023-01-04T05:37:47;101319.00;;;10.59;100.00
37202;BME280;37799;52.390;6.136;2023-01-04T05:40:13;101313.19;;;10.46;100.00
37202;BME280;37799;52.390;6.136;2023-01-04T05:42:38;101318.22;;;10.55;100.00
37202;BME280;37799;52.390;6.136;2023-01-04T05:45:04;101321.72;;;10.51;100.00
37202;BME280;37799;52.390;6.136;2023-01-04T05:47:29;101315.63;;;10.55;100.00
37202;BME280;37799;52.390;6.136;2023-01-04T05:49:55;101298.47;;;10.48;100.00
37202;BME280;37799;52.390;6.136;2023-01-04T05:52:20;101298.44;;;10.50;100.00
37202;BME280;37799;52.390;6.136;2023-01-04T05:54:46;101292.31;;;10.55;100.00
37202;BME280;37799;52.390;6.136;2023-01-04T05:57:12;101294.28;;;10.43;100.00
37202;BME280;37799;52.390;6.136;2023-01-04T05:59:37;101280.41;;;10.45;100.00
37202;BME280;37799;52.390;6.136;2023-01-04T06:02:04;101271.00;;;10.40;100.00
37202;BME280;37799;52.390;6.136;2023-01-04T06:04:29;101270.13;;;10.42;100.00
37202;BME280;37799;52.390;6.136;2023-01-04T06:06:55;101273.34;;;10.53;100.00
37202;BME280;37799;52.390;6.136;2023-01-04T06:09:20;101257.81;;;10.55;100.00
37202;BME280;37799;52.390;6.136;2023-01-04T06:11:45;101259.56;;;10.51;100.00
37202;BME280;37799;52.390;6.136;2023-01-04T06:14:10;101252.81;;;10.44;100.00
37202;BME280;37799;52.390;6.136;2023-01-04T06:16:36;101248.16;;;10.61;100.00
37202;BME280;37799;52.390;6.136;2023-01-04T06:19:01;101252.59;;;10.56;100.00
37202;BME280;37799;52.390;6.136;2023-01-04T06:21:27;101262.13;;;10.53;100.00
37202;BME280;37799;52.390;6.136;2023-01-04T06:23:53;101259.34;;;10.63;100.00
37202;BME280;37799;52.390;6.136;2023-01-04T06:26:18;101267.09;;;10.63;100.00
37202;BME280;37799;52.390;6.136;2023-01-04T06:28:44;101228.44;;;10.54;100.00
37202;BME280;37799;52.390;6.136;2023-01-04T06:31:10;101210.53;;;10.44;100.00
37202;BME280;37799;52.390;6.136;2023-01-04T06:33:36;101230.34;;;10.46;100.00
37202;BME280;37799;52.390;6.136;2023-01-04T06:36:03;101226.72;;;10.53;100.00
37202;BME280;37799;52.390;6.136;2023-01-04T06:38:29;101260.44;;;10.52;100.00
37202;BME280;37799;52.390;6.136;2023-01-04T06:40:54;101268.94;;;10.58;100.00
37202;BME280;37799;52.390;6.136;2023-01-04T06:43:19;101254.16;;;10.63;100.00
37202;BME280;37799;52.390;6.136;2023-01-04T06:45:45;101256.56;;;10.73;100.00
37202;BME280;37799;52.390;6.136;2023-01-04T06:48:10;101249.16;;;10.54;100.00
37202;BME280;37799;52.390;6.136;2023-01-04T06:50:36;101245.72;;;10.55;100.00
37202;BME280;37799;52.390;6.136;2023-01-04T06:53:01;101266.22;;;10.64;100.00
37202;BME280;37799;52.390;6.136;2023-01-04T06:55:26;101254.25;;;10.59;100.00
37202;BME280;37799;52.390;6.136;2023-01-04T06:57:54;101270.31;;;10.76;100.00
37202;BME280;37799;52.390;6.136;2023-01-04T07:00:19;101267.59;;;10.84;100.00
37202;BME280;37799;52.390;6.136;2023-01-04T07:02:45;101256.50;;;10.76;100.00
37202;BME280;37799;52.390;6.136;2023-01-04T07:05:10;101251.44;;;10.71;100.00
37202;BME280;37799;52.390;6.136;2023-01-04T07:07:35;101243.41;;;10.83;100.00
37202;BME280;37799;52.390;6.136;2023-01-04T07:10:01;101246.78;;;10.87;100.00
37202;BME280;37799;52.390;6.136;2023-01-04T07:12:26;101245.09;;;10.86;100.00
37202;BME280;37799;52.390;6.136;2023-01-04T07:14:52;101244.34;;;10.81;100.00
37202;BME280;37799;52.390;6.136;2023-01-04T07:17:17;101238.38;;;10.76;100.00
37202;BME280;37799;52.390;6.136;2023-01-04T07:19:42;101237.34;;;10.84;100.00
37202;BME280;37799;52.390;6.136;2023-01-04T07:22:08;101237.28;;;10.87;100.00
37202;BME280;37799;52.390;6.136;2023-01-04T07:24:33;101236.47;;;10.85;100.00
37202;BME280;37799;52.390;6.136;2023-01-04T07:26:59;101234.66;;;10.89;100.00
37202;BME280;37799;52.390;6.136;2023-01-04T07:29:25;101221.56;;;10.97;100.00
37202;BME280;37799;52.390;6.136;2023-01-04T07:31:51;101222.22;;;11.05;100.00
37202;BME280;37799;52.390;6.136;2023-01-04T07:34:18;101220.72;;;10.93;100.00
37202;BME280;37799;52.390;6.136;2023-01-04T07:36:45;101214.16;;;10.78;100.00
37202;BME280;37799;52.390;6.136;2023-01-04T07:39:12;101219.09;;;10.89;100.00
37202;BME280;37799;52.390;6.136;2023-01-04T07:41:38;101203.44;;;10.93;100.00
37202;BME280;37799;52.390;6.136;2023-01-04T07:44:04;101215.28;;;11.05;100.00
37202;BME280;37799;52.390;6.136;2023-01-04T07:46:31;101213.47;;;11.10;100.00
37202;BME280;37799;52.390;6.136;2023-01-04T07:48:56;101212.81;;;11.01;100.00
37202;BME280;37799;52.390;6.136;2023-01-04T07:51:22;101213.75;;;10.98;100.00
37202;BME280;37799;52.390;6.136;2023-01-04T07:53:47;101215.28;;;11.05;100.00
37202;BME280;37799;52.390;6.136;2023-01-04T07:56:12;101216.00;;;11.13;100.00
37202;BME280;37799;52.390;6.136;2023-01-04T07:58:37;101217.63;;;11.17;100.00
37202;BME280;37799;52.390;6.136;2023-01-04T08:01:07;101203.03;;;11.13;100.00
37202;BME280;37799;52.390;6.136;2023-01-04T08:03:33;101207.22;;;11.19;100.00
37202;BME280;37799;52.390;6.136;2023-01-04T08:06:09;101213.56;;;11.06;100.00
37202;BME280;37799;52.390;6.136;2023-01-04T08:08:35;101212.66;;;11.08;100.00
37202;BME280;37799;52.390;6.136;2023-01-04T08:11:01;101204.16;;;11.02;100.00
37202;BME280;37799;52.390;6.136;2023-01-04T08:13:27;101209.22;;;11.08;100.00
37202;BME280;37799;52.390;6.136;2023-01-04T08:15:53;101215.25;;;11.08;100.00
37202;BME280;37799;52.390;6.136;2023-01-04T08:18:18;101218.44;;;11.19;100.00
37202;BME280;37799;52.390;6.136;2023-01-04T08:20:44;101219.50;;;11.11;100.00
37202;BME280;37799;52.390;6.136;2023-01-04T08:23:09;101206.56;;;11.11;100.00
37202;BME280;37799;52.390;6.136;2023-01-04T08:25:34;101207.25;;;11.17;100.00
37202;BME280;37799;52.390;6.136;2023-01-04T08:28:00;101208.22;;;11.13;100.00
37202;BME280;37799;52.390;6.136;2023-01-04T08:30:25;101208.41;;;11.04;100.00
37202;BME280;37799;52.390;6.136;2023-01-04T08:32:50;101204.13;;;11.03;100.00
37202;BME280;37799;52.390;6.136;2023-01-04T08:35:18;101209.19;;;11.09;100.00
37202;BME280;37799;52.390;6.136;2023-01-04T08:37:43;101213.31;;;11.16;100.00
37202;BME280;37799;52.390;6.136;2023-01-04T08:40:08;101208.91;;;11.21;100.00
37202;BME280;37799;52.390;6.136;2023-01-04T08:42:34;101211.50;;;11.21;100.00
37202;BME280;37799;52.390;6.136;2023-01-04T08:44:59;101196.78;;;11.22;100.00
37202;BME280;37799;52.390;6.136;2023-01-04T08:47:26;101204.97;;;11.04;100.00
37202;BME280;37799;52.390;6.136;2023-01-04T08:49:51;101194.56;;;11.05;100.00
37202;BME280;37799;52.390;6.136;2023-01-04T08:52:16;101196.34;;;11.03;100.00
37202;BME280;37799;52.390;6.136;2023-01-04T08:54:41;101198.00;;;11.07;100.00
37202;BME280;37799;52.390;6.136;2023-01-04T08:57:07;101189.91;;;11.19;100.00
37202;BME280;37799;52.390;6.136;2023-01-04T08:59:32;101201.31;;;11.12;100.00
37202;BME280;37799;52.390;6.136;2023-01-04T09:01:57;101196.06;;;11.15;100.00
37202;BME280;37799;52.390;6.136;2023-01-04T09:04:23;101207.13;;;11.23;100.00
37202;BME280;37799;52.390;6.136;2023-01-04T09:06:48;101197.84;;;11.13;100.00
37202;BME280;37799;52.390;6.136;2023-01-04T09:09:14;101198.47;;;11.25;100.00
37202;BME280;37799;52.390;6.136;2023-01-04T09:11:39;101173.44;;;11.23;100.00
37202;BME280;37799;52.390;6.136;2023-01-04T09:14:05;101198.53;;;11.21;100.00
37202;BME280;37799;52.390;6.136;2023-01-04T09:16:33;101205.59;;;11.15;100.00
37202;BME280;37799;52.390;6.136;2023-01-04T09:18:58;101201.94;;;11.23;100.00
37202;BME280;37799;52.390;6.136;2023-01-04T09:21:24;101213.19;;;11.22;100.00
37202;BME280;37799;52.390;6.136;2023-01-04T09:23:50;101209.72;;;11.23;100.00
37202;BME280;37799;52.390;6.136;2023-01-04T09:26:20;101217.25;;;11.33;100.00
37202;BME280;37799;52.390;6.136;2023-01-04T09:28:47;101222.44;;;11.33;100.00
37202;BME280;37799;52.390;6.136;2023-01-04T09:31:21;101228.41;;;11.38;100.00
37202;BME280;37799;52.390;6.136;2023-01-04T09:33:47;101225.81;;;11.38;100.00
37202;BME280;37799;52.390;6.136;2023-01-04T09:36:14;101211.50;;;11.21;100.00
37202;BME280;37799;52.390;6.136;2023-01-04T09:38:41;101217.41;;;11.27;100.00
37202;BME280;37799;52.390;6.136;2023-01-04T09:41:15;101221.44;;;11.40;100.00
37202;BME280;37799;52.390;6.136;2023-01-04T09:46:25;101222.81;;;11.55;100.00
37202;BME280;37799;52.390;6.136;2023-01-04T09:49:02;101228.19;;;11.47;100.00
37202;BME280;37799;52.390;6.136;2023-01-04T09:51:32;101222.97;;;11.48;100.00
37202;BME280;37799;52.390;6.136;2023-01-04T09:54:02;101224.56;;;11.54;100.00
37202;BME280;37799;52.390;6.136;2023-01-04T09:56:35;101223.75;;;11.52;100.00
37202;BME280;37799;52.390;6.136;2023-01-04T09:59:02;101227.88;;;11.61;100.00
37202;BME280;37799;52.390;6.136;2023-01-04T10:01:51;101218.72;;;11.46;100.00
37202;BME280;37799;52.390;6.136;2023-01-04T10:04:28;101227.16;;;11.54;100.00
37202;BME280;37799;52.390;6.136;2023-01-04T10:06:56;101232.59;;;11.43;100.00
37202;BME280;37799;52.390;6.136;2023-01-04T10:09:22;101232.25;;;11.57;100.00
37202;BME280;37799;52.390;6.136;2023-01-04T10:17:45;101238.97;;;11.66;100.00
37202;BME280;37799;52.390;6.136;2023-01-04T10:20:48;101230.38;;;11.64;100.00
37202;BME280;37799;52.390;6.136;2023-01-04T10:26:15;101226.56;;;11.78;100.00
37202;BME280;37799;52.390;6.136;2023-01-04T10:29:06;101228.75;;;11.60;100.00
37202;BME280;37799;52.390;6.136;2023-01-04T10:31:46;101226.78;;;11.69;100.00
37202;BME280;37799;52.390;6.136;2023-01-04T10:34:34;101225.06;;;11.68;100.00
37202;BME280;37799;52.390;6.136;2023-01-04T10:37:12;101234.47;;;11.74;100.00
37202;BME280;37799;52.390;6.136;2023-01-04T10:39:38;101230.31;;;11.67;100.00
37202;BME280;37799;52.390;6.136;2023-01-04T10:42:38;101219.97;;;11.65;100.00
37202;BME280;37799;52.390;6.136;2023-01-04T10:48:11;101218.78;;;11.78;100.00
37202;BME280;37799;52.390;6.136;2023-01-04T10:50:48;101230.13;;;11.74;100.00
37202;BME280;37799;52.390;6.136;2023-01-04T10:56:21;101207.47;;;11.82;100.00
37202;BME280;37799;52.390;6.136;2023-01-04T10:59:18;101213.53;;;11.81;100.00
37202;BME280;37799;52.390;6.136;2023-01-04T11:01:52;101206.66;;;11.80;100.00
37202;BME280;37799;52.390;6.136;2023-01-04T11:04:32;101210.16;;;11.78;100.00
37202;BME280;37799;52.390;6.136;2023-01-04T11:07:06;101191.84;;;11.86;100.00
37202;BME280;37799;52.390;6.136;2023-01-04T11:09:44;101189.34;;;11.81;100.00
37202;BME280;37799;52.390;6.136;2023-01-04T11:12:12;101189.38;;;11.79;100.00
37202;BME280;37799;52.390;6.136;2023-01-04T11:14:39;101187.66;;;11.78;100.00
37202;BME280;37799;52.390;6.136;2023-01-04T11:17:06;101184.91;;;11.85;100.00
37202;BME280;37799;52.390;6.136;2023-01-04T11:19:33;101182.91;;;11.96;100.00
37202;BME280;37799;52.390;6.136;2023-01-04T11:22:09;101177.59;;;12.00;100.00
37202;BME280;37799;52.390;6.136;2023-01-04T11:24:36;101181.38;;;11.89;100.00
37202;BME280;37799;52.390;6.136;2023-01-04T11:27:05;101178.78;;;11.89;100.00
37202;BME280;37799;52.390;6.136;2023-01-04T11:29:39;101154.47;;;11.91;100.00
37202;BME280;37799;52.390;6.136;2023-01-04T11:32:38;101175.31;;;11.88;100.00
37202;BME280;37799;52.390;6.136;2023-01-04T11:35:06;101153.50;;;11.95;100.00
37202;BME280;37799;52.390;6.136;2023-01-04T11:37:37;101155.41;;;11.89;100.00
37202;BME280;37799;52.390;6.136;2023-01-04T11:42:40;101147.53;;;11.92;100.00
37202;BME280;37799;52.390;6.136;2023-01-04T11:45:16;101151.47;;;12.06;100.00
37202;BME280;37799;52.390;6.136;2023-01-04T11:47:53;101149.78;;;12.05;100.00
37202;BME280;37799;52.390;6.136;2023-01-04T11:50:45;101149.97;;;11.98;100.00
37202;BME280;37799;52.390;6.136;2023-01-04T11:53:26;101134.69;;;11.87;100.00
37202;BME280;37799;52.390;6.136;2023-01-04T11:58:39;101122.72;;;11.81;100.00
37202;BME280;37799;52.390;6.136;2023-01-04T12:01:07;101131.25;;;11.87;100.00
37202;BME280;37799;52.390;6.136;2023-01-04T12:03:42;101143.97;;;11.96;100.00
37202;BME280;37799;52.390;6.136;2023-01-04T12:06:17;101147.38;;;11.98;100.00
37202;BME280;37799;52.390;6.136;2023-01-04T12:08:43;101130.09;;;11.97;100.00
37202;BME280;37799;52.390;6.136;2023-01-04T12:11:18;101127.59;;;11.94;100.00
37202;BME280;37799;52.390;6.136;2023-01-04T12:13:44;101124.25;;;11.90;100.00
37202;BME280;37799;52.390;6.136;2023-01-04T12:18:37;101118.09;;;11.93;100.00
37202;BME280;37799;52.390;6.136;2023-01-04T12:21:03;101122.44;;;11.92;100.00
37202;BME280;37799;52.390;6.136;2023-01-04T12:23:29;101133.84;;;11.87;100.00
37202;BME280;37799;52.390;6.136;2023-01-04T12:25:55;101118.34;;;11.84;100.00
37202;BME280;37799;52.390;6.136;2023-01-04T12:28:43;101114.84;;;11.85;100.00
37202;BME280;37799;52.390;6.136;2023-01-04T12:33:48;101094.88;;;11.88;100.00
37202;BME280;37799;52.390;6.136;2023-01-04T12:54:51;101110.97;;;12.01;100.00
37202;BME280;37799;52.390;6.136;2023-01-04T13:00:12;101121.09;;;12.10;100.00
37202;BME280;37799;52.390;6.136;2023-01-04T13:02:38;101109.00;;;12.09;100.00
37202;BME280;37799;52.390;6.136;2023-01-04T13:07:58;101118.28;;;12.18;100.00
37202;BME280;37799;52.390;6.136;2023-01-04T13:10:36;101121.94;;;12.10;100.00
37202;BME280;37799;52.390;6.136;2023-01-04T13:23:52;101122.84;;;12.40;100.00
37202;BME280;37799;52.390;6.136;2023-01-04T13:29:12;101113.41;;;12.36;100.00
37202;BME280;37799;52.390;6.136;2023-01-04T13:34:15;101115.78;;;12.44;100.00
37202;BME280;37799;52.390;6.136;2023-01-04T13:36:42;101122.69;;;12.45;100.00
37202;BME280;37799;52.390;6.136;2023-01-04T13:39:07;101116.28;;;12.57;100.00
37202;BME280;37799;52.390;6.136;2023-01-04T13:41:34;101110.44;;;12.49;100.00
37202;BME280;37799;52.390;6.136;2023-01-04T13:44:10;101117.34;;;12.51;100.00
37202;BME280;37799;52.390;6.136;2023-01-04T13:46:41;101119.56;;;12.63;100.00
37202;BME280;37799;52.390;6.136;2023-01-04T13:49:09;101105.94;;;12.55;100.00
37202;BME280;37799;52.390;6.136;2023-01-04T13:51:35;101120.69;;;12.55;100.00
37202;BME280;37799;52.390;6.136;2023-01-04T13:54:04;101098.41;;;12.46;100.00
37202;BME280;37799;52.390;6.136;2023-01-04T13:56:32;101100.06;;;12.49;100.00
37202;BME280;37799;52.390;6.136;2023-01-04T13:58:58;101108.72;;;12.49;100.00
37202;BME280;37799;52.390;6.136;2023-01-04T14:01:31;101105.31;;;12.47;100.00
37202;BME280;37799;52.390;6.136;2023-01-04T14:04:01;101110.28;;;12.55;100.00
37202;BME280;37799;52.390;6.136;2023-01-04T14:07:09;101104.19;;;12.56;100.00
37202;BME280;37799;52.390;6.136;2023-01-04T14:09:17;101095.50;;;12.57;100.00
37202;BME280;37799;52.390;6.136;2023-01-04T14:11:50;101105.16;;;12.53;100.00
37202;BME280;37799;52.390;6.136;2023-01-04T14:20:02;101105.91;;;12.57;100.00
37202;BME280;37799;52.390;6.136;2023-01-04T14:24:58;101099.94;;;12.53;100.00
37202;BME280;37799;52.390;6.136;2023-01-04T14:27:33;101103.41;;;12.54;100.00
37202;BME280;37799;52.390;6.136;2023-01-04T14:30:00;101098.81;;;12.62;100.00
37202;BME280;37799;52.390;6.136;2023-01-04T14:32:37;101106.66;;;12.60;100.00